Time;durP1;ratioP1;P1;durP2;ratioP2;P2;SDS_P1;SDS_P2;PMS_P1;PMS_P2;Temp;Humidity;BMP_temperature;BMP_pressure;BME280_temperature;BME280_humidity;BME280_pressure;Samples;Min_cycle;Max_cycle;Signal;HPM_P1;HPM_P2
2021/04/05 00:03:07;;;;;;;24.13;13.17;;;;;5.10;100992.00;;;;9678703;30;20207;-78
2021/04/05 00:08:08;;;;;;;28.77;13.23;;;;;5.00;100987.00;;;;9698794;30;20572;-78
2021/04/05 00:13:13;;;;;;;26.27;12.20;;;;;4.90;100980.00;;;;9668029;30;20293;-78
2021/04/05 00:18:16;;;;;;;19.13;11.23;;;;;4.90;100974.00;;;;9691126;30;20218;-78
2021/04/05 00:23:18;;;;;;;24.60;11.37;;;;;4.90;100959.00;;;;9664067;30;20200;-78
2021/04/05 00:28:20;;;;;;;25.00;12.50;;;;;4.80;100959.00;;;;9686469;30;20236;-78
2021/04/05 00:33:22;;;;;;;24.03;12.47;;;;;4.80;100952.00;;;;9668882;30;20254;-78
2021/04/05 00:38:24;;;;;;;31.60;13.00;;;;;4.70;100938.00;;;;9656522;30;20749;-78
2021/04/05 00:43:26;;;;;;;28.17;14.03;;;;;4.80;100933.00;;;;9686219;30;20204;-78
2021/04/05 00:48:27;;;;;;;27.27;13.97;;;;;4.80;100920.00;;;;9697972;30;20645;-78
2021/04/05 00:53:35;;;;;;;29.27;12.93;;;;;4.80;100905.00;;;;9697055;30;20689;-78
2021/04/05 00:58:37;;;;;;;27.53;12.97;;;;;4.80;100904.00;;;;9640308;30;20666;-77
2021/04/05 01:03:42;;;;;;;28.00;14.17;;;;;4.80;100892.00;;;;9703589;30;20201;-78
2021/04/05 01:08:44;;;;;;;30.67;13.60;;;;;4.80;100905.00;;;;9703739;30;20208;-78
2021/04/05 01:13:47;;;;;;;29.17;12.33;;;;;4.80;100883.00;;;;9718400;30;20720;-78
2021/04/05 01:18:49;;;;;;;24.73;12.07;;;;;4.70;100876.00;;;;9701523;30;20200;-78
2021/04/05 01:23:50;;;;;;;23.13;11.73;;;;;4.60;100865.00;;;;9671458;30;20205;-78
2021/04/05 01:28:52;;;;;;;24.33;12.63;;;;;4.60;100872.00;;;;9672046;30;20228;-77
2021/04/05 01:33:53;;;;;;;23.60;11.80;;;;;4.50;100862.00;;;;9681136;30;20242;-78
2021/04/05 01:38:55;;;;;;;27.83;11.40;;;;;4.50;100857.00;;;;9699601;30;20200;-78
2021/04/05 01:43:57;;;;;;;25.30;11.70;;;;;4.40;100848.00;;;;9704317;30;20238;-77
2021/04/05 01:49:02;;;;;;;22.57;11.00;;;;;4.50;100833.00;;;;9688558;30;20204;-77
2021/04/05 01:54:04;;;;;;;25.57;13.87;;;;;4.40;100828.00;;;;9686203;30;20580;-77
2021/04/05 01:59:05;;;;;;;24.83;12.17;;;;;4.40;100824.00;;;;9696248;30;20202;-79
2021/04/05 02:04:09;;;;;;;39.63;13.67;;;;;4.30;100815.00;;;;9674420;30;20294;-78
2021/04/05 02:09:10;;;;;;;20.97;12.40;;;;;4.40;100801.00;;;;9721029;30;20652;-78
2021/04/05 02:14:11;;;;;;;31.07;12.97;;;;;4.30;100794.00;;;;9675171;30;20247;-78
2021/04/05 02:19:15;;;;;;;27.23;14.90;;;;;4.40;100782.00;;;;9700522;30;20641;-78
2021/04/05 02:24:17;;;;;;;32.27;15.57;;;;;4.40;100790.00;;;;9673869;30;20255;-78
2021/04/05 02:29:19;;;;;;;33.17;15.60;;;;;4.40;100767.00;;;;9698138;30;20278;-78
2021/04/05 02:34:21;;;;;;;31.10;16.93;;;;;4.40;100769.00;;;;9678615;30;20272;-78
2021/04/05 02:39:23;;;;;;;38.47;18.10;;;;;4.40;100761.00;;;;9681314;30;20243;-78
2021/04/05 02:44:25;;;;;;;35.67;18.43;;;;;4.40;100745.00;;;;9689957;30;20208;-78
2021/04/05 02:49:26;;;;;;;38.47;19.33;;;;;4.40;100725.00;;;;9697148;30;20266;-78
2021/04/05 02:54:27;;;;;;;32.97;17.77;;;;;4.40;100724.00;;;;9684684;30;20219;-78
2021/04/05 02:59:31;;;;;;;47.03;20.53;;;;;4.50;100719.00;;;;9678303;30;20228;-77
2021/04/05 03:04:33;;;;;;;37.20;17.73;;;;;4.60;100724.00;;;;9676867;30;20200;-79
2021/04/05 03:09:34;;;;;;;40.20;18.40;;;;;4.60;100727.00;;;;9670162;30;20224;-78
2021/04/05 03:14:35;;;;;;;47.13;20.83;;;;;4.60;100714.00;;;;9689530;30;20270;-78
2021/04/05 03:19:41;;;;;;;47.27;23.50;;;;;4.60;100701.00;;;;9700082;30;20222;-78
2021/04/05 03:24:43;;;;;;;49.67;23.50;;;;;4.60;100704.00;;;;9709975;30;20280;-78
2021/04/05 03:29:46;;;;;;;44.83;20.90;;;;;4.70;100685.00;;;;9684794;30;20316;-78
2021/04/05 03:34:54;;;;;;;54.13;24.07;;;;;4.70;100677.00;;;;9694846;30;20281;-78
2021/04/05 03:39:56;;;;;;;45.57;24.30;;;;;4.80;100685.00;;;;9686858;30;20202;-78
2021/04/05 03:45:04;;;;;;;45.23;24.63;;;;;4.90;100653.00;;;;9681482;30;20208;-78
2021/04/05 03:50:33;;;;;;;49.17;23.30;;;;;5.00;100654.00;;;;9687167;30;20208;-78
2021/04/05 03:55:38;;;;;;;52.47;25.97;;;;;5.00;100638.00;;;;9659179;30;20268;-78
2021/04/05 04:00:42;;;;;;;45.00;19.70;;;;;5.10;100622.00;;;;9685093;30;20214;-78
2021/04/05 04:06:05;;;;;;;60.17;25.73;;;;;5.20;100608.00;;;;9640754;30;20219;-78
2021/04/05 04:11:09;;;;;;;46.70;24.30;;;;;5.30;100599.00;;;;9688598;30;20692;-78
2021/04/05 04:16:13;;;;;;;40.00;22.20;;;;;5.30;100591.00;;;;9693168;30;20589;-78
2021/04/05 04:21:16;;;;;;;56.33;26.20;;;;;5.30;100571.00;;;;9673773;30;20233;-78
2021/04/05 04:26:17;;;;;;;45.40;23.00;;;;;5.30;100564.00;;;;9686446;30;20298;-78
2021/04/05 04:31:21;;;;;;;50.67;25.60;;;;;5.30;100559.00;;;;9691819;30;20210;-78
2021/04/05 04:36:26;;;;;;;50.53;24.67;;;;;5.30;100554.00;;;;9688454;30;20241;-78
2021/04/05 04:41:29;;;;;;;55.63;23.83;;;;;5.40;100546.00;;;;9690532;30;20204;-78
2021/04/05 04:46:32;;;;;;;43.43;23.87;;;;;5.50;100543.00;;;;9683349;30;20734;-78
2021/04/05 04:51:41;;;;;;;51.40;25.83;;;;;5.60;100541.00;;;;9687708;30;20215;-78
2021/04/05 04:56:42;;;;;;;52.13;25.40;;;;;5.70;100544.00;;;;9680263;30;20203;-78
2021/04/05 05:01:55;;;;;;;49.03;26.80;;;;;5.80;100541.00;;;;9706932;30;20203;-79
2021/04/05 05:06:59;;;;;;;57.50;29.03;;;;;5.90;100536.00;;;;9691539;30;20198;-78
2021/04/05 05:12:02;;;;;;;55.97;27.53;;;;;6.00;100527.00;;;;9704836;30;20204;-78
2021/04/05 05:17:06;;;;;;;47.93;28.40;;;;;6.10;100515.00;;;;9670962;30;20223;-79
2021/04/05 05:22:09;;;;;;;52.57;25.37;;;;;6.20;100505.00;;;;9692115;30;20212;-79
2021/04/05 05:27:11;;;;;;;46.40;25.90;;;;;6.30;100502.00;;;;9677297;30;20969;-78
2021/04/05 05:32:16;;;;;;;43.17;23.73;;;;;6.30;100503.00;;;;9672440;30;20630;-79
2021/04/05 05:37:20;;;;;;;41.17;21.17;;;;;6.40;100490.00;;;;9697000;30;20216;-79
2021/04/05 05:42:43;;;;;;;45.57;23.63;;;;;6.50;100476.00;;;;9677048;30;20209;-79
2021/04/05 05:48:08;;;;;;;56.13;26.70;;;;;6.60;100492.00;;;;9687778;30;20208;-79
2021/04/05 05:53:27;;;;;;;43.37;24.27;;;;;6.70;100484.00;;;;9698112;30;20207;-78
2021/04/05 05:58:45;;;;;;;46.57;25.27;;;;;6.80;100480.00;;;;9684750;30;20212;-77
2021/04/05 06:04:06;;;;;;;47.00;23.07;;;;;7.00;100475.00;;;;9680335;30;20206;-77
2021/04/05 06:09:43;;;;;;;46.63;24.33;;;;;7.10;100474.00;;;;9708996;30;20199;-78
2021/04/05 06:14:56;;;;;;;49.50;23.27;;;;;7.10;100460.00;;;;9628022;30;20240;-78
2021/04/05 06:20:05;;;;;;;61.27;33.03;;;;;7.20;100452.00;;;;9696818;30;20223;-78
2021/04/05 06:25:30;;;;;;;43.23;23.50;;;;;7.40;100451.00;;;;9677516;30;20228;-78
2021/04/05 06:30:44;;;;;;;36.30;21.63;;;;;7.70;100451.00;;;;9688245;30;20211;-78
2021/04/05 06:36:04;;;;;;;33.10;17.33;;;;;8.00;100440.00;;;;9667957;30;20227;-78
2021/04/05 06:41:33;;;;;;;27.07;13.30;;;;;8.20;100442.00;;;;9691093;30;20208;-78
2021/04/05 06:47:25;;;;;;;32.97;16.57;;;;;8.30;100425.00;;;;9672746;30;20236;-78
2021/04/05 06:52:53;;;;;;;30.83;14.67;;;;;8.20;100422.00;;;;9588346;30;20206;-79
2021/04/05 06:58:24;;;;;;;33.00;15.90;;;;;8.10;100411.00;;;;9659391;30;20239;-79
2021/04/05 07:03:39;;;;;;;25.67;13.70;;;;;8.10;100402.00;;;;9676627;30;20207;-79
2021/04/05 07:09:17;;;;;;;25.80;14.57;;;;;8.00;100401.00;;;;9695077;30;20194;-78
2021/04/05 07:14:37;;;;;;;27.37;13.77;;;;;7.90;100416.00;;;;9644117;30;20238;-79
2021/04/05 07:19:41;;;;;;;25.30;14.27;;;;;7.80;100429.00;;;;9709838;30;20668;-79
2021/04/05 07:24:48;;;;;;;19.43;10.57;;;;;7.50;100443.00;;;;9716547;30;20755;-80
2021/04/05 07:30:09;;;;;;;16.07;6.90;;;;;6.90;100473.00;;;;9669634;30;20666;-78
2021/04/05 07:35:32;;;;;;;6.57;3.63;;;;;6.40;100465.00;;;;9713826;30;20243;-78
2021/04/05 07:41:11;;;;;;;7.43;3.30;;;;;6.30;100476.00;;;;9694337;30;20245;-78
2021/04/05 07:46:18;;;;;;;6.63;3.33;;;;;6.30;100489.00;;;;9685380;30;20207;-77
2021/04/05 07:51:27;;;;;;;12.07;3.57;;;;;6.20;100495.00;;;;9679248;30;20206;-77
2021/04/05 07:56:38;;;;;;;13.43;4.30;;;;;6.10;100504.00;;;;9705510;30;20226;-77
2021/04/05 08:01:49;;;;;;;8.67;3.30;;;;;6.30;100507.00;;;;9683067;30;20246;-77
2021/04/05 08:07:19;;;;;;;9.57;2.80;;;;;6.20;100513.00;;;;9692890;30;20287;-77
2021/04/05 08:13:08;;;;;;;13.93;3.70;;;;;6.10;100527.00;;;;9706049;30;20832;-77
2021/04/05 08:18:41;;;;;;;13.60;2.60;;;;;5.90;100545.00;;;;9654145;30;20246;-77
2021/04/05 08:24:21;;;;;;;7.73;2.37;;;;;5.90;100555.00;;;;9666959;30;20204;-77
2021/04/05 08:29:34;;;;;;;5.10;2.27;;;;;5.60;100589.00;;;;9697722;30;20196;-76
2021/04/05 08:35:01;;;;;;;2.97;1.60;;;;;5.40;100611.00;;;;9708120;30;20231;-76
2021/04/05 08:40:19;;;;;;;1.40;1.30;;;;;5.20;100636.00;;;;9684884;30;20211;-77
2021/04/05 08:45:23;;;;;;;7.63;2.23;;;;;5.00;100640.00;;;;9700322;30;20196;-77
2021/04/05 08:50:29;;;;;;;4.27;2.30;;;;;4.80;100667.00;;;;9696793;30;20666;-77
2021/04/05 08:55:32;;;;;;;3.87;2.57;;;;;4.70;100684.00;;;;9671575;30;20586;-76
2021/04/05 09:00:43;;;;;;;9.80;2.70;;;;;4.50;100690.00;;;;9667101;30;20270;-77
2021/04/05 09:05:48;;;;;;;12.97;3.90;;;;;4.30;100691.00;;;;9652774;30;20204;-77
2021/04/05 09:10:53;;;;;;;12.20;3.10;;;;;4.30;100699.00;;;;9683916;30;20204;-77
2021/04/05 09:16:21;;;;;;;21.10;3.60;;;;;4.40;100713.00;;;;9648634;30;20697;-77
2021/04/05 09:21:45;;;;;;;12.40;2.73;;;;;4.40;100717.00;;;;9661119;30;20219;-77
2021/04/05 09:26:59;;;;;;;14.60;2.90;;;;;4.40;100737.00;;;;9699552;30;20250;-77
2021/04/05 09:32:25;;;;;;;18.13;3.47;;;;;4.70;100740.00;;;;9698994;30;20206;-77
2021/04/05 09:38:04;;;;;;;13.50;3.40;;;;;4.60;100744.00;;;;9657269;30;20245;-77
2021/04/05 09:43:31;;;;;;;6.07;2.23;;;;;4.60;100764.00;;;;9657396;30;20268;-77
2021/04/05 09:48:57;;;;;;;11.13;2.47;;;;;5.40;100760.00;;;;9680275;30;20204;-77
2021/04/05 09:54:10;;;;;;;6.63;2.17;;;;;6.00;100741.00;;;;9683781;30;20224;-78
2021/04/05 09:59:17;;;;;;;9.10;2.17;;;;;5.90;100755.00;;;;9669296;30;20551;-77
2021/04/05 10:04:28;;;;;;;4.33;1.77;;;;;6.40;100785.00;;;;9692471;30;20218;-77
2021/04/05 10:09:32;;;;;;;6.10;2.10;;;;;6.60;100798.00;;;;9668714;30;20197;-77
2021/04/05 10:14:41;;;;;;;4.93;1.27;;;;;6.10;100792.00;;;;9675250;30;20227;-77
2021/04/05 10:19:43;;;;;;;8.37;2.10;;;;;5.20;100832.00;;;;9665574;30;20212;-77
2021/04/05 10:24:51;;;;;;;8.20;2.03;;;;;5.50;100858.00;;;;9691730;30;20599;-77
2021/04/05 10:29:55;;;;;;;5.03;1.67;;;;;6.20;100854.00;;;;9686855;30;20628;-77
2021/04/05 10:34:58;;;;;;;6.33;1.70;;;;;7.30;100853.00;;;;9682698;30;20945;-77
2021/04/05 10:40:01;;;;;;;11.03;1.73;;;;;6.50;100871.00;;;;9697246;30;20667;-78
2021/04/05 10:45:09;;;;;;;8.13;2.20;;;;;6.00;100880.00;;;;9708292;30;20200;-77
2021/04/05 10:50:11;;;;;;;5.83;1.47;;;;;6.60;100858.00;;;;9709699;30;20265;-77
2021/04/05 10:55:23;;;;;;;8.43;2.33;;;;;6.70;100877.00;;;;9683624;30;20220;-77
2021/04/05 11:00:49;;;;;;;8.07;1.67;;;;;5.50;100836.00;;;;9700668;30;20669;-77
2021/04/05 11:05:55;;;;;;;11.13;2.67;;;;;4.70;100907.00;;;;9653100;30;20211;-77
2021/04/05 11:11:06;;;;;;;6.13;1.43;;;;;5.80;100920.00;;;;9654119;30;20213;-77
2021/04/05 11:16:15;;;;;;;7.67;2.03;;;;;7.10;100903.00;;;;9702951;30;20219;-77
2021/04/05 11:21:19;;;;;;;6.00;1.63;;;;;7.40;100905.00;;;;9650287;30;20221;-77
2021/04/05 11:26:29;;;;;;;9.77;1.90;;;;;7.40;100908.00;;;;9698429;30;20228;-77
2021/04/05 11:31:40;;;;;;;10.60;3.23;;;;;8.20;100904.00;;;;9658143;30;20208;-77
2021/04/05 11:36:50;;;;;;;10.53;1.93;;;;;8.40;100910.00;;;;9662481;30;20223;-77
2021/04/05 11:41:57;;;;;;;9.33;1.80;;;;;9.70;100878.00;;;;9665770;30;20658;-77
2021/04/05 11:47:00;;;;;;;8.80;2.20;;;;;10.20;100891.00;;;;9663103;30;20542;-76
2021/04/05 11:52:02;;;;;;;5.03;1.43;;;;;10.30;100891.00;;;;9683512;30;20207;-76
2021/04/05 11:57:08;;;;;;;6.27;1.53;;;;;8.50;100908.00;;;;9653499;30;20283;-77
2021/04/05 12:02:19;;;;;;;5.93;1.50;;;;;8.20;100895.00;;;;9701241;30;20204;-77
2021/04/05 12:07:23;;;;;;;6.43;1.90;;;;;7.70;100901.00;;;;9710674;30;20207;-77
2021/04/05 12:12:41;;;;;;;7.57;1.60;;;;;6.90;100921.00;;;;9680925;30;20224;-76
2021/04/05 12:17:47;;;;;;;3.87;1.30;;;;;8.60;100877.00;;;;9720225;30;20715;-77
2021/04/05 12:22:59;;;;;;;8.03;1.60;;;;;10.50;100909.00;;;;9701353;30;20204;-77
2021/04/05 12:28:06;;;;;;;5.50;1.63;;;;;9.20;100909.00;;;;9691604;30;20227;-77
2021/04/05 12:33:13;;;;;;;5.20;1.40;;;;;7.70;100896.00;;;;9675717;30;20739;-78
2021/04/05 12:38:39;;;;;;;4.63;1.77;;;;;6.80;100915.00;;;;9668612;30;20270;-77
2021/04/05 12:43:43;;;;;;;4.30;1.53;;;;;6.60;100923.00;;;;9678652;30;20218;-77
2021/04/05 12:48:46;;;;;;;4.40;1.27;;;;;8.90;100934.00;;;;9674846;30;20858;-77
2021/04/05 12:53:49;;;;;;;4.97;1.10;;;;;7.40;100925.00;;;;9674512;30;20617;-77
2021/04/05 12:58:55;;;;;;;4.63;1.33;;;;;7.90;100888.00;;;;9675991;30;20274;-78
2021/04/05 13:04:02;;;;;;;2.63;1.00;;;;;8.70;100903.00;;;;9691451;30;20291;-78
2021/04/05 13:09:09;;;;;;;8.53;1.97;;;;;9.30;100932.00;;;;9678984;30;20278;-77
2021/04/05 13:14:13;;;;;;;4.60;1.17;;;;;9.60;100944.00;;;;9683113;30;20234;-78
2021/04/05 13:19:17;;;;;;;5.93;1.20;;;;;9.20;100939.00;;;;9683430;30;20665;-78
2021/04/05 13:24:25;;;;;;;6.37;1.60;;;;;8.90;100934.00;;;;9682182;30;20242;-77
2021/04/05 13:29:30;;;;;;;1.53;0.77;;;;;8.90;100942.00;;;;9645139;30;20263;-78
2021/04/05 13:34:33;;;;;;;6.17;1.03;;;;;9.50;100958.00;;;;9652391;30;20231;-78
2021/04/05 13:39:36;;;;;;;4.40;1.10;;;;;10.20;100955.00;;;;9667377;30;20663;-77
2021/04/05 13:44:39;;;;;;;3.77;1.77;;;;;11.30;100959.00;;;;9695488;30;20204;-78
2021/04/05 13:49:47;;;;;;;6.40;1.30;;;;;8.60;100985.00;;;;9709032;30;20208;-77
2021/04/05 13:54:58;;;;;;;10.53;1.57;;;;;10.80;100979.00;;;;9661337;30;20227;-77
2021/04/05 14:00:07;;;;;;;4.50;1.00;;;;;13.10;100968.00;;;;9688839;30;20882;-77
2021/04/05 14:05:14;;;;;;;3.20;1.20;;;;;14.50;100969.00;;;;9693811;30;20196;-77
2021/04/05 14:10:16;;;;;;;3.87;1.23;;;;;15.40;100961.00;;;;9654657;30;20283;-77
2021/04/05 14:15:25;;;;;;;4.40;1.20;;;;;15.60;100959.00;;;;9661083;30;20775;-77
2021/04/05 14:20:31;;;;;;;2.73;1.20;;;;;16.40;100980.00;;;;9681007;30;20893;-77
2021/04/05 14:25:36;;;;;;;4.30;1.10;;;;;11.50;100992.00;;;;9672994;30;20638;-77
2021/04/05 14:30:40;;;;;;;4.40;1.20;;;;;10.10;100990.00;;;;9669013;30;20243;-76
2021/04/05 14:35:44;;;;;;;5.30;1.13;;;;;7.90;101009.00;;;;9680350;30;20308;-76
2021/04/05 14:40:46;;;;;;;4.77;1.20;;;;;7.80;101056.00;;;;9677997;30;20215;-76
2021/04/05 14:45:51;;;;;;;2.33;0.83;;;;;8.30;101069.00;;;;9710148;30;20207;-77
2021/04/05 14:50:53;;;;;;;5.33;1.10;;;;;5.70;101080.00;;;;9678797;30;20288;-77
2021/04/05 14:55:55;;;;;;;6.03;1.20;;;;;7.20;101100.00;;;;9671736;30;20311;-77
2021/04/05 15:01:08;;;;;;;6.73;1.40;;;;;7.60;101070.00;;;;9670318;30;20200;-77
2021/04/05 15:06:12;;;;;;;3.83;1.40;;;;;10.80;101076.00;;;;9648413;30;20274;-77
2021/04/05 15:11:19;;;;;;;3.70;1.20;;;;;6.80;101099.00;;;;9672901;30;20980;-76
2021/04/05 15:16:27;;;;;;;6.03;2.00;;;;;5.60;101103.00;;;;9671057;30;20251;-77
2021/04/05 15:21:31;;;;;;;2.57;1.10;;;;;6.00;101099.00;;;;9658509;30;20215;-77
2021/04/05 15:26:33;;;;;;;4.77;1.23;;;;;6.00;101112.00;;;;9672021;30;20235;-76
2021/04/05 15:31:35;;;;;;;3.90;0.83;;;;;5.00;101095.00;;;;9680381;30;21011;-76
2021/04/05 15:36:38;;;;;;;3.17;1.17;;;;;4.10;101113.00;;;;9697658;30;20937;-76
2021/04/05 15:41:42;;;;;;;4.17;1.57;;;;;3.90;101112.00;;;;9673395;30;20205;-77
2021/04/05 15:46:53;;;;;;;3.20;1.33;;;;;4.20;101111.00;;;;9686811;30;20227;-77
2021/04/05 15:52:03;;;;;;;4.93;1.57;;;;;5.70;101111.00;;;;9684409;30;20222;-76
2021/04/05 15:57:16;;;;;;;3.57;1.40;;;;;6.80;101125.00;;;;9673293;30;20234;-77
2021/04/05 16:02:25;;;;;;;9.63;1.00;;;;;5.40;101131.00;;;;9693150;30;20884;-77
2021/04/05 16:07:34;;;;;;;5.87;1.80;;;;;4.00;101138.00;;;;9685176;30;20199;-77
2021/04/05 16:12:59;;;;;;;8.47;1.90;;;;;2.80;101160.00;;;;9684015;30;20195;-77
2021/04/05 16:18:09;;;;;;;7.17;2.00;;;;;1.90;101190.00;;;;9682673;30;20234;-77
2021/04/05 16:23:20;;;;;;;5.00;1.53;;;;;1.60;101182.00;;;;9651192;30;20211;-78
2021/04/05 16:28:30;;;;;;;4.83;2.00;;;;;1.60;101184.00;;;;9682937;30;20600;-77
2021/04/05 16:33:36;;;;;;;7.17;1.93;;;;;1.90;101168.00;;;;9660625;30;20233;-77
2021/04/05 16:38:50;;;;;;;8.80;3.07;;;;;2.70;101172.00;;;;9673706;30;20243;-77
2021/04/05 16:43:54;;;;;;;30.60;21.27;;;;;2.90;101178.00;;;;9671032;30;20224;-76
2021/04/05 16:49:02;;;;;;;7.37;2.97;;;;;2.50;101178.00;;;;9681189;30;20310;-76
2021/04/05 16:54:04;;;;;;;11.73;2.70;;;;;2.60;101172.00;;;;9656222;30;20274;-76
2021/04/05 16:59:09;;;;;;;10.43;2.77;;;;;3.10;101193.00;;;;9695142;30;20227;-77
2021/04/05 17:04:22;;;;;;;10.63;2.47;;;;;2.50;101199.00;;;;9698921;30;20290;-76
2021/04/05 17:09:29;;;;;;;9.10;2.73;;;;;2.20;101192.00;;;;9627321;30;20713;-77
2021/04/05 17:14:43;;;;;;;12.73;2.40;;;;;2.20;101195.00;;;;9693643;30;20219;-76
2021/04/05 17:19:45;;;;;;;11.17;2.67;;;;;2.90;101192.00;;;;9641117;30;20673;-77
2021/04/05 17:24:48;;;;;;;11.90;3.10;;;;;3.60;101195.00;;;;9658329;30;20313;-77
2021/04/05 17:30:09;;;;;;;9.23;2.70;;;;;3.50;101189.00;;;;9668569;30;20511;-77
2021/04/05 17:35:25;;;;;;;11.53;2.70;;;;;3.50;101204.00;;;;9679865;30;20681;-77
2021/04/05 17:40:44;;;;;;;12.73;2.57;;;;;3.20;101200.00;;;;9667198;30;20218;-77
2021/04/05 17:45:47;;;;;;;12.77;3.30;;;;;2.90;101199.00;;;;9676199;30;20208;-76
2021/04/05 17:51:02;;;;;;;9.10;2.70;;;;;3.00;101205.00;;;;9678298;30;20274;-76
2021/04/05 17:56:23;;;;;;;12.50;4.87;;;;;2.90;101211.00;;;;9674652;30;20255;-76
2021/04/05 18:01:34;;;;;;;12.93;3.57;;;;;2.50;101226.00;;;;9675551;30;20243;-76
2021/04/05 18:06:45;;;;;;;8.27;2.67;;;;;2.20;101247.00;;;;9670849;30;20274;-76
2021/04/05 18:12:02;;;;;;;4.23;1.37;;;;;1.90;101238.00;;;;9661386;30;20920;-77
2021/04/05 18:17:07;;;;;;;4.67;1.10;;;;;1.70;101241.00;;;;9658359;30;20223;-77
2021/04/05 18:22:39;;;;;;;9.13;2.13;;;;;1.50;101246.00;;;;9664958;30;20245;-77
2021/04/05 18:28:02;;;;;;;8.50;1.70;;;;;1.50;101239.00;;;;9671591;30;20235;-77
2021/04/05 18:33:20;;;;;;;9.60;1.63;;;;;1.40;101250.00;;;;9670904;30;20627;-77
2021/04/05 18:38:25;;;;;;;14.13;2.23;;;;;1.50;101238.00;;;;9660166;30;20224;-76
2021/04/05 18:43:43;;;;;;;13.63;1.73;;;;;1.50;101257.00;;;;9645769;30;20307;-76
2021/04/05 18:48:58;;;;;;;7.27;1.77;;;;;1.50;101251.00;;;;9672856;30;20204;-76
2021/04/05 18:54:08;;;;;;;8.30;1.90;;;;;1.60;101260.00;;;;9659439;30;20215;-76
2021/04/05 18:59:14;;;;;;;9.30;1.80;;;;;1.60;101260.00;;;;9669295;30;20209;-76
2021/04/05 19:04:18;;;;;;;5.17;1.50;;;;;1.60;101282.00;;;;9670354;30;20223;-76
2021/04/05 19:09:27;;;;;;;6.30;1.50;;;;;1.60;101273.00;;;;9656459;30;20677;-76
2021/04/05 19:14:58;;;;;;;6.53;2.33;;;;;1.50;101284.00;;;;9667150;30;20224;-76
2021/04/05 19:20:12;;;;;;;5.37;1.57;;;;;1.50;101277.00;;;;9668013;30;20199;-76
2021/04/05 19:25:51;;;;;;;9.20;1.80;;;;;1.50;101288.00;;;;9640167;30;20735;-77
2021/04/05 19:31:34;;;;;;;9.20;1.90;;;;;1.50;101285.00;;;;9670654;30;20208;-76
2021/04/05 19:37:12;;;;;;;9.20;1.77;;;;;1.60;101279.00;;;;9681625;30;20224;-76
2021/04/05 19:42:38;;;;;;;7.43;2.10;;;;;1.70;101283.00;;;;9670621;30;20299;-77
2021/04/05 19:47:56;;;;;;;5.17;2.00;;;;;1.70;101273.00;;;;9677136;30;20265;-77
2021/04/05 19:53:16;;;;;;;7.90;1.73;;;;;1.50;101260.00;;;;9648173;30;20269;-77
2021/04/05 19:58:22;;;;;;;3.63;1.20;;;;;1.30;101263.00;;;;9652311;30;20315;-77
2021/04/05 20:04:17;;;;;;;6.33;2.00;;;;;1.40;101255.00;;;;9673078;30;20204;-77
2021/04/05 20:09:33;;;;;;;5.70;1.53;;;;;1.30;101249.00;;;;9618486;30;20254;-76
2021/04/05 20:14:44;;;;;;;5.40;1.43;;;;;1.20;101245.00;;;;9652127;30;20223;-77
2021/04/05 20:19:55;;;;;;;18.43;3.13;;;;;1.00;101230.00;;;;9651893;30;20204;-77
2021/04/05 20:25:06;;;;;;;10.80;2.27;;;;;1.10;101220.00;;;;9676457;30;20251;-77
2021/04/05 20:30:30;;;;;;;11.40;2.20;;;;;1.20;101214.00;;;;9657922;30;20201;-77
2021/04/05 20:35:34;;;;;;;7.27;1.80;;;;;1.10;101208.00;;;;9685778;30;20231;-77
2021/04/05 20:40:37;;;;;;;8.20;2.07;;;;;1.10;101200.00;;;;9675868;30;20638;-77
2021/04/05 20:45:53;;;;;;;9.30;1.77;;;;;1.10;101192.00;;;;9679289;30;20216;-77
2021/04/05 20:51:02;;;;;;;15.77;2.70;;;;;1.30;101204.00;;;;9672371;30;20203;-77
2021/04/05 20:56:03;;;;;;;6.80;1.80;;;;;1.50;101223.00;;;;9695879;30;20217;-77
2021/04/05 21:01:09;;;;;;;7.10;1.77;;;;;1.70;101213.00;;;;9694515;30;20204;-78
2021/04/05 21:06:14;;;;;;;5.80;1.77;;;;;1.90;101251.00;;;;9681312;30;20216;-78
2021/04/05 21:11:19;;;;;;;6.23;2.00;;;;;1.30;101254.00;;;;9665199;30;20635;-77
2021/04/05 21:16:24;;;;;;;10.37;2.43;;;;;0.70;101259.00;;;;9671469;30;20208;-77
2021/04/05 21:21:32;;;;;;;6.87;1.60;;;;;0.50;101267.00;;;;9682365;30;20212;-77
2021/04/05 21:26:44;;;;;;;14.70;2.40;;;;;0.40;101257.00;;;;9666555;30;20227;-77
2021/04/05 21:31:57;;;;;;;11.40;2.50;;;;;0.40;101248.00;;;;9687967;30;20214;-77
2021/04/05 21:37:08;;;;;;;5.97;1.67;;;;;0.40;101248.00;;;;9669031;30;20236;-77
2021/04/05 21:42:09;;;;;;;9.47;2.57;;;;;0.40;101236.00;;;;9653596;30;20208;-77
2021/04/05 21:47:11;;;;;;;10.37;2.17;;;;;0.40;101238.00;;;;9700140;30;20223;-77
2021/04/05 21:52:29;;;;;;;7.00;1.73;;;;;0.50;101238.00;;;;9654423;30;20212;-78
2021/04/05 21:57:34;;;;;;;4.70;1.50;;;;;0.60;101250.00;;;;9673343;30;20246;-78
2021/04/05 22:02:40;;;;;;;10.27;3.03;;;;;0.70;101241.00;;;;9687699;30;20216;-78
2021/04/05 22:07:42;;;;;;;8.73;1.83;;;;;0.70;101237.00;;;;9657416;30;20226;-78
2021/04/05 22:12:44;;;;;;;5.57;1.73;;;;;0.80;101222.00;;;;9669353;30;20203;-78
2021/04/05 22:17:46;;;;;;;10.10;2.30;;;;;0.80;101216.00;;;;9651913;30;20224;-78
2021/04/05 22:22:58;;;;;;;4.77;1.60;;;;;0.90;101214.00;;;;9655764;30;20212;-79
2021/04/05 22:28:01;;;;;;;15.53;2.83;;;;;0.90;101218.00;;;;9656671;30;20235;-77
2021/04/05 22:33:04;;;;;;;8.57;2.87;;;;;1.00;101207.00;;;;9710582;30;20235;-77
2021/04/05 22:38:10;;;;;;;11.40;2.60;;;;;1.00;101205.00;;;;9674696;30;20248;-77
2021/04/05 22:43:14;;;;;;;10.70;2.83;;;;;1.10;101204.00;;;;9657770;30;20263;-77
2021/04/05 22:48:16;;;;;;;7.47;2.57;;;;;1.10;101204.00;;;;9675406;30;20775;-77
2021/04/05 22:53:33;;;;;;;9.97;2.60;;;;;1.20;101195.00;;;;9664420;30;20561;-76
2021/04/05 22:58:36;;;;;;;10.00;2.37;;;;;1.10;101215.00;;;;9692710;30;20216;-76
2021/04/05 23:03:38;;;;;;;9.30;1.97;;;;;1.20;101219.00;;;;9692193;30;20242;-77
2021/04/05 23:08:54;;;;;;;11.03;2.30;;;;;1.20;101219.00;;;;9691971;30;20235;-77
2021/04/05 23:14:03;;;;;;;7.37;1.93;;;;;1.00;101212.00;;;;9706431;30;20264;-77
2021/04/05 23:19:10;;;;;;;12.00;2.70;;;;;0.90;101219.00;;;;9643042;30;20642;-77
2021/04/05 23:24:17;;;;;;;6.90;2.97;;;;;1.00;101228.00;;;;9692022;30;20204;-77
2021/04/05 23:29:25;;;;;;;7.00;2.50;;;;;1.00;101221.00;;;;9707571;30;20199;-77
2021/04/05 23:34:37;;;;;;;6.40;2.53;;;;;1.00;101219.00;;;;9692396;30;20274;-77
2021/04/05 23:40:10;;;;;;;7.80;3.00;;;;;1.10;101231.00;;;;9678386;30;20216;-77
2021/04/05 23:45:14;;;;;;;9.47;3.97;;;;;1.20;101238.00;;;;9678614;30;20234;-77
2021/04/05 23:50:19;;;;;;;6.27;2.73;;;;;1.10;101231.00;;;;9677694;30;20211;-77
2021/04/05 23:55:29;;;;;;;6.93;4.23;;;;;0.80;101230.00;;;;9671019;30;20263;-77
